createdAt,value
2023-04-15T00:01:51.085Z,1.52
2023-04-15T00:04:52.466Z,1.40
2023-04-15T00:07:53.804Z,1.93
2023-04-15T00:10:55.097Z,2.00
2023-04-15T00:13:56.411Z,1.65
2023-04-15T00:16:57.869Z,1.80
2023-04-15T00:19:59.357Z,1.85
2023-04-15T00:23:00.649Z,1.57
2023-04-15T00:26:01.976Z,1.63
2023-04-15T00:29:03.284Z,1.77
2023-04-15T00:32:04.600Z,1.30
2023-04-15T00:35:05.893Z,1.85
2023-04-15T00:38:07.195Z,1.60
2023-04-15T00:41:08.500Z,2.05
2023-04-15T00:44:09.825Z,2.10
2023-04-15T00:47:11.108Z,1.63
2023-04-15T00:50:12.422Z,1.65
2023-04-15T00:53:13.721Z,1.60
2023-04-15T00:56:15.034Z,1.38
2023-04-15T00:59:16.324Z,2.28
2023-04-15T01:02:17.792Z,1.83
2023-04-15T01:05:19.183Z,1.45
2023-04-15T01:08:20.500Z,1.60
2023-04-15T01:11:21.796Z,1.85
2023-04-15T01:14:23.098Z,1.95
2023-04-15T01:17:24.443Z,1.38
2023-04-15T01:20:25.766Z,1.67
2023-04-15T01:23:27.064Z,1.50
2023-04-15T01:26:28.340Z,2.22
2023-04-15T01:29:29.647Z,1.98
2023-04-15T01:32:31.008Z,1.73
2023-04-15T01:35:32.379Z,1.35
2023-04-15T01:38:33.695Z,2.10
2023-04-15T01:41:35.000Z,2.17
2023-04-15T01:44:36.307Z,2.10
2023-04-15T01:47:37.665Z,1.35
2023-04-15T01:50:39.171Z,1.83
2023-04-15T01:53:40.491Z,2.17
2023-04-15T01:56:41.798Z,1.80
2023-04-15T01:59:43.095Z,1.80
2023-04-15T02:02:44.543Z,1.30
2023-04-15T02:05:45.912Z,1.67
2023-04-15T02:08:47.231Z,1.50
2023-04-15T02:11:48.514Z,1.50
2023-04-15T02:14:49.834Z,1.67
2023-04-15T02:17:51.260Z,1.63
2023-04-15T02:20:52.672Z,1.80
2023-04-15T02:23:54.181Z,1.47
2023-04-15T02:26:55.555Z,2.00
2023-04-15T02:29:56.901Z,1.80
2023-04-15T02:32:58.309Z,1.58
2023-04-15T02:35:59.649Z,1.85
2023-04-15T02:39:01.144Z,1.83
2023-04-15T02:42:02.724Z,2.22
2023-04-15T02:45:04.038Z,2.13
2023-04-15T02:48:05.400Z,1.80
2023-04-15T02:51:06.745Z,2.53
2023-04-15T02:54:08.041Z,1.70
2023-04-15T02:57:09.321Z,1.95
2023-04-15T03:00:10.623Z,2.22
2023-04-15T03:03:12.086Z,2.08
2023-04-15T03:06:13.470Z,2.00
2023-04-15T03:09:14.779Z,1.60
2023-04-15T03:12:16.085Z,1.75
2023-04-15T03:15:17.376Z,1.25
2023-04-15T03:18:18.667Z,2.40
2023-04-15T03:21:19.964Z,2.63
2023-04-15T03:24:21.269Z,1.80
2023-04-15T03:27:22.564Z,1.40
2023-04-15T03:30:23.930Z,2.33
2023-04-15T03:33:25.244Z,2.15
2023-04-15T03:36:26.542Z,1.92
2023-04-15T03:39:27.845Z,2.43
2023-04-15T03:42:29.161Z,1.70
2023-04-15T03:45:30.451Z,1.50
2023-04-15T03:48:31.790Z,1.63
2023-04-15T03:51:33.084Z,2.05
2023-04-15T03:54:34.380Z,2.00
2023-04-15T03:57:35.697Z,2.08
2023-04-15T04:00:36.989Z,1.83
2023-04-15T04:03:38.388Z,1.58
2023-04-15T04:06:39.779Z,1.83
2023-04-15T04:09:41.066Z,1.50
2023-04-15T04:12:42.366Z,2.20
2023-04-15T04:15:43.741Z,1.65
2023-04-15T04:18:45.078Z,1.70
2023-04-15T04:21:46.398Z,1.70
2023-04-15T04:24:47.667Z,2.10
2023-04-15T04:27:48.961Z,1.58
2023-04-15T04:30:50.250Z,1.70
2023-04-15T04:33:51.548Z,1.55
2023-04-15T04:36:52.860Z,2.72
2023-04-15T04:39:54.168Z,1.83
2023-04-15T04:42:55.478Z,2.03
2023-04-15T04:45:56.861Z,1.52
2023-04-15T04:48:58.164Z,1.30
2023-04-15T04:51:59.461Z,1.45
2023-04-15T04:55:00.756Z,1.90
2023-04-15T04:58:02.074Z,2.33
2023-04-15T05:01:03.391Z,2.30
2023-04-15T05:04:05.021Z,1.80
2023-04-15T05:07:06.672Z,1.92
2023-04-15T05:10:08.008Z,1.87
2023-04-15T05:13:09.304Z,1.98
2023-04-15T05:16:10.634Z,1.70
2023-04-15T05:19:11.977Z,1.63
2023-04-15T05:22:13.282Z,1.95
2023-04-15T05:25:14.599Z,1.80
2023-04-15T05:28:15.881Z,1.65
2023-04-15T05:31:17.215Z,1.63
2023-04-15T05:34:18.555Z,1.45
2023-04-15T05:37:19.863Z,1.55
2023-04-15T05:40:21.190Z,0.97
2023-04-15T05:43:22.524Z,1.33
2023-04-15T05:46:23.857Z,1.65
2023-04-15T05:49:25.210Z,1.67
2023-04-15T05:52:26.498Z,1.67
2023-04-15T05:55:27.826Z,1.80
2023-04-15T05:58:29.126Z,2.05
2023-04-15T06:01:30.454Z,2.08
2023-04-15T06:04:31.789Z,2.13
2023-04-15T06:07:33.160Z,1.85
2023-04-15T06:10:34.430Z,1.97
2023-04-15T06:13:35.736Z,2.15
2023-04-15T06:16:37.119Z,2.13
2023-04-15T06:19:38.485Z,1.98
2023-04-15T06:22:39.808Z,1.77
2023-04-15T06:25:41.114Z,1.70
2023-04-15T06:28:42.415Z,1.88
2023-04-15T06:31:43.772Z,1.55
2023-04-15T06:34:45.120Z,1.20
2023-04-15T06:37:46.431Z,2.00
2023-04-15T06:40:47.751Z,2.00
2023-04-15T06:43:49.050Z,1.90
2023-04-15T06:46:50.335Z,1.85
2023-04-15T06:49:51.651Z,1.20
2023-04-15T06:52:52.959Z,1.95
2023-04-15T06:55:54.267Z,2.20
2023-04-15T06:58:55.575Z,1.80
2023-04-15T07:01:56.981Z,2.22
2023-04-15T07:04:58.312Z,1.83
2023-04-15T07:07:59.624Z,1.90
2023-04-15T07:11:00.919Z,2.07
2023-04-15T07:14:02.245Z,2.42
2023-04-15T07:17:03.598Z,1.38
2023-04-15T07:20:05.034Z,1.77
2023-04-15T07:23:06.355Z,2.00
2023-04-15T07:26:07.692Z,2.10
2023-04-15T07:29:08.988Z,1.92
2023-04-15T07:32:10.306Z,2.38
2023-04-15T07:35:11.603Z,1.90
2023-04-15T07:38:12.905Z,2.00
2023-04-15T07:41:14.247Z,2.17
2023-04-15T07:44:15.596Z,2.25
2023-04-15T07:47:16.908Z,2.42
2023-04-15T07:50:18.238Z,1.90
2023-04-15T07:53:19.537Z,1.75
2023-04-15T07:56:20.843Z,2.10
2023-04-15T07:59:22.162Z,2.10
2023-04-15T08:02:23.651Z,1.77
2023-04-15T08:05:25.141Z,2.00
2023-04-15T08:08:26.520Z,1.63
2023-04-15T08:11:27.837Z,1.80
2023-04-15T08:14:29.159Z,1.92
2023-04-15T08:17:30.509Z,1.67
2023-04-15T08:20:31.828Z,1.50
2023-04-15T08:23:33.153Z,2.10
2023-04-15T08:26:34.451Z,1.73
2023-04-15T08:29:35.751Z,1.83
2023-04-15T08:32:37.069Z,2.15
2023-04-15T08:35:38.404Z,1.60
2023-04-15T08:38:39.699Z,1.55
2023-04-15T08:41:41.009Z,1.67
2023-04-15T08:44:42.288Z,1.80
2023-04-15T08:47:43.650Z,1.30
2023-04-15T08:50:44.965Z,1.40
2023-04-15T08:53:46.289Z,1.85
2023-04-15T08:56:47.638Z,1.80
2023-04-15T08:59:48.959Z,1.55
2023-04-15T09:02:50.374Z,1.60
2023-04-15T09:05:53.213Z,1.80
2023-04-15T09:08:54.671Z,2.10
2023-04-15T09:11:56.036Z,2.10
2023-04-15T09:14:57.354Z,1.77
2023-04-15T09:17:58.691Z,1.70
2023-04-15T09:21:00.009Z,2.28
2023-04-15T09:24:01.847Z,2.00
2023-04-15T09:27:03.497Z,2.00
2023-04-15T09:30:04.788Z,2.60
2023-04-15T09:33:06.174Z,2.25
2023-04-15T09:36:07.556Z,1.45
2023-04-15T09:39:08.859Z,2.30
2023-04-15T09:42:10.187Z,2.23
2023-04-15T09:45:11.478Z,2.33
2023-04-15T09:48:12.795Z,2.78
2023-04-15T09:51:14.120Z,2.80
2023-04-15T09:54:15.411Z,2.42
2023-04-15T09:57:16.744Z,3.27
2023-04-15T10:00:18.049Z,2.20
2023-04-15T10:03:19.527Z,2.88
2023-04-15T10:06:21.031Z,2.95
2023-04-15T10:09:22.307Z,2.90
2023-04-15T10:12:23.616Z,2.67
2023-04-15T10:15:24.909Z,3.10
2023-04-15T10:18:26.237Z,2.17
2023-04-15T10:21:27.554Z,2.25
2023-04-15T10:24:28.890Z,2.88
2023-04-15T10:27:30.188Z,2.30
2023-04-15T10:30:31.495Z,2.67
2023-04-15T10:33:32.794Z,2.85
2023-04-15T10:36:34.107Z,2.78
2023-04-15T10:39:35.415Z,2.15
2023-04-15T10:42:36.709Z,2.43
2023-04-15T10:45:38.002Z,2.42
2023-04-15T10:48:39.316Z,2.35
2023-04-15T10:51:40.624Z,2.38
2023-04-15T10:54:41.935Z,2.55
2023-04-15T10:57:43.246Z,2.37
2023-04-15T11:00:44.573Z,2.20
2023-04-15T11:03:46.109Z,2.17
2023-04-15T11:06:47.465Z,1.85
2023-04-15T11:09:48.760Z,2.17
2023-04-15T11:12:50.071Z,2.33
2023-04-15T11:15:51.378Z,2.33
2023-04-15T11:18:52.690Z,1.70
2023-04-15T11:21:53.977Z,2.38
2023-04-15T11:24:55.277Z,1.80
2023-04-15T11:27:56.617Z,2.43
2023-04-15T11:30:58.013Z,1.88
2023-04-15T11:33:59.596Z,2.10
2023-04-15T11:37:00.951Z,1.73
2023-04-15T11:40:02.266Z,1.20
2023-04-15T11:43:03.586Z,1.80
2023-04-15T11:46:04.965Z,1.83
2023-04-15T11:49:06.344Z,2.30
2023-04-15T11:52:07.657Z,2.17
2023-04-15T11:55:08.966Z,1.77
2023-04-15T11:58:10.272Z,1.53
2023-04-15T12:01:11.583Z,1.60
2023-04-15T12:04:13.070Z,2.55
2023-04-15T12:07:14.543Z,2.03
2023-04-15T12:10:15.828Z,1.92
2023-04-15T12:13:17.134Z,1.87
2023-04-15T12:16:18.481Z,1.65
2023-04-15T12:19:19.830Z,2.22
2023-04-15T12:22:21.197Z,2.30
2023-04-15T12:25:22.517Z,2.38
2023-04-15T12:28:23.810Z,1.87
2023-04-15T12:31:25.126Z,1.88
2023-04-15T12:34:26.498Z,2.00
2023-04-15T12:37:27.795Z,2.10
2023-04-15T12:40:29.113Z,1.95
2023-04-15T12:43:30.436Z,1.90
2023-04-15T12:46:31.770Z,1.80
2023-04-15T12:49:33.135Z,1.80
2023-04-15T12:52:34.435Z,2.60
2023-04-15T12:55:35.754Z,1.83
2023-04-15T12:58:37.074Z,2.10
2023-04-15T13:01:38.448Z,1.65
2023-04-15T13:04:39.802Z,2.15
2023-04-15T13:07:41.133Z,1.98
2023-04-15T13:10:42.436Z,2.25
2023-04-15T13:13:43.728Z,2.37
2023-04-15T13:16:45.032Z,2.20
2023-04-15T13:19:46.343Z,2.55
2023-04-15T13:22:47.646Z,1.95
2023-04-15T13:25:48.964Z,1.80
2023-04-15T13:28:50.278Z,1.73
2023-04-15T13:31:52.844Z,1.85
2023-04-15T13:34:54.152Z,1.63
2023-04-15T13:37:55.451Z,1.85
2023-04-15T13:40:56.944Z,1.40
2023-04-15T13:43:58.330Z,2.20
2023-04-15T13:46:59.661Z,1.63
2023-04-15T13:50:00.982Z,1.80
2023-04-15T13:53:02.278Z,1.90
2023-04-15T13:56:03.591Z,1.27
2023-04-15T13:59:04.881Z,1.70
2023-04-15T14:02:06.327Z,1.55
2023-04-15T14:05:07.689Z,1.92
2023-04-15T14:08:08.997Z,1.58
2023-04-15T14:11:10.295Z,1.77
2023-04-15T14:14:11.604Z,1.73
2023-04-15T14:17:12.896Z,1.67
2023-04-15T14:20:16.821Z,1.63
2023-04-15T14:23:18.547Z,1.50
2023-04-15T14:26:20.108Z,1.70
2023-04-15T14:29:21.756Z,1.93
2023-04-15T14:32:23.127Z,1.85
2023-04-15T14:35:24.478Z,1.52
2023-04-15T14:38:26.001Z,1.40
2023-04-15T14:41:27.366Z,1.35
2023-04-15T14:44:29.015Z,1.57
2023-04-15T14:47:30.470Z,1.60
2023-04-15T14:50:31.838Z,1.50
2023-04-15T14:53:33.148Z,1.20
2023-04-15T14:56:34.737Z,1.77
2023-04-15T14:59:36.092Z,1.33
2023-04-15T15:02:39.598Z,1.45
2023-04-15T15:05:41.573Z,2.10
2023-04-15T15:08:43.383Z,1.45
2023-04-15T15:11:44.747Z,1.35
2023-04-15T15:14:46.391Z,1.90
2023-04-15T15:17:47.828Z,2.15
2023-04-15T15:20:49.510Z,1.63
2023-04-15T15:23:51.134Z,2.05
2023-04-15T15:26:52.781Z,1.60
2023-04-15T15:29:54.132Z,1.70
2023-04-15T15:32:55.474Z,1.77
2023-04-15T15:35:56.819Z,1.70
2023-04-15T15:38:59.407Z,1.70
2023-04-15T15:42:00.974Z,1.75
2023-04-15T15:45:02.469Z,1.90
2023-04-15T15:48:03.851Z,2.30
2023-04-15T15:51:05.160Z,1.17
2023-04-15T15:54:06.474Z,1.80
2023-04-15T15:57:07.804Z,1.42
2023-04-15T16:00:12.540Z,2.27
2023-04-15T16:03:14.455Z,1.25
2023-04-15T16:06:15.860Z,2.05
2023-04-15T16:09:17.195Z,1.85
2023-04-15T16:12:18.504Z,1.65
2023-04-15T16:15:19.808Z,1.87
2023-04-15T16:18:21.113Z,2.33
2023-04-15T16:21:22.499Z,1.75
2023-04-15T16:24:23.815Z,2.05
2023-04-15T16:27:25.401Z,1.70
2023-04-15T16:30:26.754Z,1.57
2023-04-15T16:33:28.388Z,1.95
2023-04-15T16:36:30.140Z,1.85
2023-04-15T16:39:31.895Z,1.98
2023-04-15T16:42:33.290Z,1.92
2023-04-15T16:45:34.623Z,1.33
2023-04-15T16:48:36.349Z,1.70
2023-04-15T16:51:37.741Z,1.83
2023-04-15T16:54:39.075Z,1.50
2023-04-15T16:58:01.104Z,1.73
2023-04-15T17:01:02.019Z,1.87
2023-04-15T17:04:04.863Z,1.42
2023-04-15T17:07:06.330Z,1.58
2023-04-15T17:10:07.634Z,1.60
2023-04-15T17:13:08.962Z,2.03
2023-04-15T17:16:10.658Z,2.20
2023-04-15T17:19:12.060Z,1.95
2023-04-15T17:22:13.365Z,2.42
2023-04-15T17:25:14.675Z,2.38
2023-04-15T17:28:16.383Z,2.35
2023-04-15T17:31:17.796Z,2.50
2023-04-15T17:34:19.237Z,2.00
2023-04-15T17:37:20.560Z,2.33
2023-04-15T17:40:22.277Z,2.58
2023-04-15T17:43:23.929Z,2.80
2023-04-15T17:46:25.696Z,2.10
2023-04-15T17:49:27.426Z,2.35
2023-04-15T17:52:28.903Z,2.70
2023-04-15T17:55:30.402Z,2.20
2023-04-15T17:58:32.165Z,3.55
2023-04-15T18:01:34.086Z,2.70
2023-04-15T18:04:35.805Z,3.20
2023-04-15T18:07:37.541Z,2.55
2023-04-15T18:10:38.918Z,3.47
2023-04-15T18:13:41.218Z,2.58
2023-04-15T18:16:44.586Z,3.07
2023-04-15T18:19:46.608Z,2.85
2023-04-15T18:22:48.003Z,3.70
2023-04-15T18:25:49.806Z,2.92
2023-04-15T18:28:51.234Z,3.35
2023-04-15T18:31:53.139Z,3.47
2023-04-15T18:34:54.888Z,3.17
2023-04-15T18:37:58.846Z,4.07
2023-04-15T18:41:00.731Z,3.65
2023-04-15T18:44:03.906Z,4.05
2023-04-15T18:47:05.641Z,4.00
2023-04-15T18:50:07.432Z,3.38
2023-04-15T18:53:09.199Z,3.53
2023-04-15T18:56:11.565Z,3.60
2023-04-15T18:59:29.497Z,3.65
2023-04-15T19:02:32.389Z,3.10
2023-04-15T19:05:34.257Z,3.60
2023-04-15T19:08:35.944Z,2.70
2023-04-15T19:11:37.683Z,3.53
2023-04-15T19:14:39.463Z,3.17
2023-04-15T19:17:41.272Z,3.40
2023-04-15T19:20:43.024Z,3.38
2023-04-15T19:23:44.811Z,3.72
2023-04-15T19:26:46.613Z,4.10
2023-04-15T19:29:51.466Z,3.72
2023-04-15T19:32:53.417Z,3.83
2023-04-15T19:35:55.286Z,4.10
2023-04-15T19:38:56.752Z,4.28
2023-04-15T19:41:58.569Z,4.38
2023-04-15T19:45:00.461Z,3.83
2023-04-15T19:48:02.264Z,4.27
2023-04-15T19:51:04.122Z,4.55
2023-04-15T19:54:06.040Z,4.75
2023-04-15T19:57:07.900Z,3.63
2023-04-15T20:00:09.665Z,4.38
2023-04-15T20:03:11.629Z,4.10
2023-04-15T20:06:13.442Z,3.72
2023-04-15T20:09:15.220Z,3.88
2023-04-15T20:12:49.256Z,3.78
2023-04-15T20:15:38.799Z,3.38
2023-04-15T20:18:40.210Z,3.63
2023-04-15T20:21:42.098Z,3.58
2023-04-15T20:24:43.912Z,3.75
2023-04-15T20:27:45.304Z,3.70
2023-04-15T20:30:47.591Z,3.53
2023-04-15T20:33:49.463Z,2.93
2023-04-15T20:36:51.186Z,3.17
2023-04-15T20:39:53.044Z,3.17
2023-04-15T20:42:56.700Z,3.08
2023-04-15T20:46:02.176Z,3.22
2023-04-15T20:49:08.568Z,3.07
2023-04-15T20:52:10.211Z,3.38
2023-04-15T20:55:12.016Z,3.25
2023-04-15T20:58:13.411Z,3.05
2023-04-15T21:01:14.780Z,2.85
2023-04-15T21:04:16.341Z,2.90
2023-04-15T21:07:17.829Z,3.05
2023-04-15T21:10:19.471Z,2.78
2023-04-15T21:13:20.867Z,3.22
2023-04-15T21:16:22.206Z,2.72
2023-04-15T21:19:23.519Z,2.33
2023-04-15T21:22:24.813Z,2.38
2023-04-15T21:25:26.117Z,3.05
2023-04-15T21:28:27.614Z,2.63
2023-04-15T21:31:28.940Z,3.08
2023-04-15T21:34:30.274Z,3.00
2023-04-15T21:37:31.612Z,2.80
2023-04-15T21:40:32.919Z,3.00
2023-04-15T21:43:34.235Z,2.88
2023-04-15T21:46:35.850Z,2.97
2023-04-15T21:49:37.573Z,2.87
2023-04-15T21:52:38.901Z,2.60
2023-04-15T21:55:40.190Z,3.05
2023-04-15T21:58:41.523Z,2.78
2023-04-15T22:01:42.940Z,2.53
2023-04-15T22:04:44.272Z,2.80
2023-04-15T22:07:45.567Z,2.60
2023-04-15T22:10:46.881Z,3.00
2023-04-15T22:13:48.181Z,2.63
2023-04-15T22:16:49.513Z,2.95
2023-04-15T22:19:50.840Z,3.30
2023-04-15T22:22:54.236Z,2.40
2023-04-15T22:25:55.838Z,3.03
2023-04-15T22:28:57.180Z,2.38
2023-04-15T22:31:58.486Z,2.92
2023-04-15T22:34:59.770Z,2.90
2023-04-15T22:38:01.060Z,2.83
2023-04-15T22:41:02.365Z,2.90
2023-04-15T22:44:03.679Z,1.98
2023-04-15T22:47:04.960Z,2.90
2023-04-15T22:50:06.259Z,2.17
2023-04-15T22:53:07.566Z,2.67
2023-04-15T22:56:08.855Z,3.40
2023-04-15T22:59:10.426Z,2.25
2023-04-15T23:02:11.973Z,2.78
2023-04-15T23:05:13.564Z,2.77
2023-04-15T23:08:15.016Z,2.53
2023-04-15T23:11:16.333Z,2.30
2023-04-15T23:14:17.639Z,2.58
2023-04-15T23:17:18.967Z,2.38
2023-04-15T23:20:20.289Z,2.43
2023-04-15T23:23:21.618Z,2.60
2023-04-15T23:26:22.907Z,2.28
2023-04-15T23:29:24.219Z,2.47
2023-04-15T23:32:25.562Z,3.35
2023-04-15T23:35:26.894Z,2.93
2023-04-15T23:38:28.192Z,2.58
2023-04-15T23:41:29.477Z,2.17
2023-04-15T23:44:30.798Z,2.90
2023-04-15T23:47:32.108Z,3.03
2023-04-15T23:50:33.418Z,2.60
2023-04-15T23:53:34.750Z,2.40
2023-04-15T23:56:36.106Z,2.78
2023-04-15T23:59:37.401Z,2.65
